createdAt,value
2017-08-30T00:00:04.894Z,71.1
2017-08-30T00:01:06.506Z,70.5
2017-08-30T00:02:08.119Z,70.4
2017-08-30T00:03:09.737Z,69.8
2017-08-30T00:04:11.354Z,70.5
2017-08-30T00:05:12.963Z,70.1
2017-08-30T00:06:14.578Z,71.0
2017-08-30T00:07:16.192Z,70.4
2017-08-30T00:08:17.810Z,70.4
2017-08-30T00:09:19.425Z,71.0
2017-08-30T00:10:21.036Z,70.3
2017-08-30T00:11:22.649Z,70.3
2017-08-30T00:12:24.270Z,70.2
2017-08-30T00:13:25.888Z,70.8
2017-08-30T00:14:27.499Z,70.2
2017-08-30T00:15:29.110Z,70.3
2017-08-30T00:16:30.730Z,71.1
2017-08-30T00:17:32.377Z,70.6
2017-08-30T00:18:33.957Z,71.3
2017-08-30T00:19:35.601Z,71.3
2017-08-30T00:20:37.189Z,71.1
2017-08-30T00:21:38.808Z,71.0
2017-08-30T00:22:40.417Z,70.7
2017-08-30T00:23:42.028Z,70.7
2017-08-30T00:24:43.653Z,70.7
2017-08-30T00:25:45.261Z,70.8
2017-08-30T00:26:46.871Z,70.8
2017-08-30T00:27:48.486Z,70.5
2017-08-30T00:28:50.106Z,70.9
2017-08-30T00:29:51.721Z,70.6
2017-08-30T00:30:53.330Z,70.7
2017-08-30T00:31:54.942Z,70.6
2017-08-30T00:32:56.560Z,70.8
2017-08-30T00:33:58.180Z,70.5
2017-08-30T00:34:59.791Z,70.7
2017-08-30T00:36:01.405Z,70.6
2017-08-30T00:37:03.023Z,71.0
2017-08-30T00:38:04.637Z,70.3
2017-08-30T00:39:06.249Z,70.3
2017-08-30T00:40:07.865Z,70.9
2017-08-30T00:41:09.482Z,71.0
2017-08-30T00:42:11.094Z,71.2
2017-08-30T00:43:12.710Z,71.2
2017-08-30T00:44:14.331Z,71.2
2017-08-30T00:45:15.956Z,71.0
2017-08-30T00:46:17.550Z,71.3
2017-08-30T00:47:19.162Z,71.2
2017-08-30T00:48:20.788Z,71.2
2017-08-30T00:49:22.399Z,71.2
2017-08-30T00:50:24.011Z,71.0
2017-08-30T00:51:25.625Z,71.1
2017-08-30T00:52:27.242Z,71.0
2017-08-30T00:53:28.859Z,71.0
2017-08-30T00:54:30.468Z,71.0
2017-08-30T00:55:32.081Z,71.4
2017-08-30T00:56:33.702Z,71.4
2017-08-30T00:57:35.320Z,71.2
2017-08-30T00:58:36.927Z,70.9
2017-08-30T00:59:38.540Z,70.5
2017-08-30T01:00:40.157Z,71.3
2017-08-30T01:01:41.776Z,70.8
2017-08-30T01:02:43.386Z,71.4
2017-08-30T01:03:45.001Z,72.0
2017-08-30T01:04:46.621Z,72.1
2017-08-30T01:05:48.236Z,71.7
2017-08-30T01:06:49.845Z,72.0
2017-08-30T01:07:51.460Z,71.9
2017-08-30T01:08:53.078Z,71.8
2017-08-30T01:09:54.695Z,72.3
2017-08-30T01:10:56.306Z,71.6
2017-08-30T01:11:57.925Z,71.9
2017-08-30T01:12:59.544Z,72.3
2017-08-30T01:14:01.157Z,72.2
2017-08-30T01:15:02.766Z,72.5
2017-08-30T01:16:04.376Z,71.9
2017-08-30T01:17:05.995Z,72.0
2017-08-30T01:18:07.617Z,71.9
2017-08-30T01:19:09.223Z,72.5
2017-08-30T01:20:10.836Z,72.2
2017-08-30T01:21:12.452Z,71.9
2017-08-30T01:22:14.067Z,71.7
2017-08-30T01:23:15.678Z,72.1
2017-08-30T01:24:17.293Z,72.6
2017-08-30T01:25:18.912Z,72.1
2017-08-30T01:26:20.531Z,71.9
2017-08-30T01:27:22.146Z,71.9
2017-08-30T01:28:23.760Z,72.0
2017-08-30T01:29:25.370Z,72.2
2017-08-30T01:30:26.983Z,71.3
2017-08-30T01:31:28.603Z,71.2
2017-08-30T01:32:30.214Z,71.2
2017-08-30T01:33:31.832Z,71.2
2017-08-30T01:34:33.447Z,70.5
2017-08-30T01:35:35.056Z,70.8
2017-08-30T01:36:36.669Z,70.6
2017-08-30T01:37:38.288Z,70.7
2017-08-30T01:38:39.907Z,70.8
2017-08-30T01:39:41.516Z,70.8
2017-08-30T01:40:43.132Z,70.2
2017-08-30T01:41:44.742Z,70.2
2017-08-30T01:42:46.360Z,70.6
2017-08-30T01:43:47.976Z,70.0
2017-08-30T01:44:49.594Z,70.1
2017-08-30T01:45:51.205Z,70.2
2017-08-30T01:46:52.819Z,70.2
2017-08-30T01:47:54.438Z,69.7
2017-08-30T01:48:56.054Z,70.0
2017-08-30T01:49:57.664Z,69.9
2017-08-30T01:50:59.278Z,69.9
2017-08-30T01:52:00.896Z,70.0
2017-08-30T01:53:02.513Z,69.9
2017-08-30T01:54:04.128Z,69.8
2017-08-30T01:55:05.742Z,70.0
2017-08-30T01:56:07.352Z,69.9
2017-08-30T01:57:08.973Z,69.6
2017-08-30T01:58:10.585Z,69.7
2017-08-30T01:59:12.198Z,69.9
2017-08-30T02:00:13.809Z,69.5
2017-08-30T02:01:15.430Z,69.5
2017-08-30T02:02:17.047Z,69.0
2017-08-30T02:03:18.657Z,69.1
2017-08-30T02:04:20.266Z,69.5
2017-08-30T02:05:21.887Z,69.1
2017-08-30T02:06:23.502Z,69.2
2017-08-30T02:07:25.115Z,69.5
2017-08-30T02:08:26.728Z,69.7
2017-08-30T02:09:28.350Z,69.6
2017-08-30T02:10:29.963Z,69.7
2017-08-30T02:11:31.573Z,69.4
2017-08-30T02:12:33.186Z,70.0
2017-08-30T02:13:34.805Z,69.9
2017-08-30T02:14:36.420Z,70.0
2017-08-30T02:15:38.033Z,69.8
2017-08-30T02:16:39.648Z,69.9
2017-08-30T02:17:41.267Z,69.8
2017-08-30T02:18:42.876Z,70.2
2017-08-30T02:19:44.490Z,70.3
2017-08-30T02:20:46.109Z,70.4
2017-08-30T02:21:47.726Z,71.1
2017-08-30T02:22:49.338Z,71.3
2017-08-30T02:23:50.954Z,70.8
2017-08-30T02:24:52.569Z,72.0
2017-08-30T02:25:54.184Z,72.0
2017-08-30T02:26:55.794Z,72.3
2017-08-30T02:27:57.408Z,71.7
2017-08-30T02:28:59.026Z,72.5
2017-08-30T02:30:00.667Z,71.9
2017-08-30T02:31:02.256Z,71.8
2017-08-30T02:32:03.875Z,72.4
2017-08-30T02:33:05.488Z,72.3
2017-08-30T02:34:07.110Z,72.3
2017-08-30T02:35:08.719Z,72.9
2017-08-30T02:36:10.333Z,72.8
2017-08-30T02:37:11.953Z,73.2
2017-08-30T02:38:13.570Z,72.9
2017-08-30T02:39:15.175Z,73.4
2017-08-30T02:40:16.795Z,73.2
2017-08-30T02:41:18.412Z,73.3
2017-08-30T02:42:20.028Z,74.2
2017-08-30T02:43:21.638Z,74.2
2017-08-30T02:44:23.250Z,73.3
2017-08-30T02:45:24.870Z,73.7
2017-08-30T02:46:26.493Z,74.3
2017-08-30T02:47:28.093Z,74.2
2017-08-30T02:48:29.712Z,74.2
2017-08-30T02:49:31.330Z,74.6
2017-08-30T02:50:32.944Z,75.0
2017-08-30T02:51:34.559Z,74.3
2017-08-30T02:52:36.178Z,73.6
2017-08-30T02:53:37.787Z,74.3
2017-08-30T02:54:39.399Z,74.2
2017-08-30T02:55:41.018Z,74.1
2017-08-30T02:56:42.632Z,74.5
2017-08-30T02:57:44.244Z,74.5
2017-08-30T02:58:45.862Z,74.6
2017-08-30T02:59:47.479Z,74.5
2017-08-30T03:00:49.093Z,74.2
2017-08-30T03:01:50.701Z,75.1
2017-08-30T03:02:52.314Z,75.0
2017-08-30T03:03:53.930Z,74.5
2017-08-30T03:04:55.548Z,75.0
2017-08-30T03:05:57.159Z,75.3
2017-08-30T03:06:58.777Z,75.1
2017-08-30T03:08:00.389Z,74.5
2017-08-30T03:09:02.007Z,75.0
2017-08-30T03:10:03.616Z,75.4
2017-08-30T03:11:05.232Z,75.2
2017-08-30T03:12:06.845Z,75.2
2017-08-30T03:13:08.462Z,75.2
2017-08-30T03:14:10.074Z,75.2
2017-08-30T03:15:11.690Z,75.1
2017-08-30T03:16:13.302Z,75.0
2017-08-30T03:17:14.915Z,75.4
2017-08-30T03:18:16.527Z,74.9
2017-08-30T03:19:18.140Z,74.7
2017-08-30T03:20:19.759Z,75.4
2017-08-30T03:21:21.375Z,75.1
2017-08-30T03:22:22.983Z,75.1
2017-08-30T03:23:24.607Z,75.3
2017-08-30T03:24:26.213Z,75.3
2017-08-30T03:25:27.826Z,75.1
2017-08-30T03:26:29.449Z,75.4
2017-08-30T03:27:31.078Z,75.8
2017-08-30T03:28:32.678Z,75.9
2017-08-30T03:29:34.288Z,75.4
2017-08-30T03:30:35.905Z,75.3
2017-08-30T03:31:37.523Z,75.2
2017-08-30T03:32:39.134Z,75.4
2017-08-30T03:33:40.745Z,76.0
2017-08-30T03:34:42.364Z,76.0
2017-08-30T03:35:43.981Z,75.8
2017-08-30T03:36:45.589Z,75.9
2017-08-30T03:37:47.201Z,75.6
2017-08-30T03:38:48.819Z,75.7
2017-08-30T03:39:50.437Z,75.7
2017-08-30T03:40:52.047Z,75.6
2017-08-30T03:41:53.659Z,76.1
2017-08-30T03:42:55.278Z,76.7
2017-08-30T03:43:56.906Z,77.1
2017-08-30T03:44:58.515Z,77.3
2017-08-30T03:46:00.125Z,76.9
2017-08-30T03:47:01.742Z,76.7
2017-08-30T03:48:03.358Z,77.0
2017-08-30T03:49:04.969Z,77.4
2017-08-30T03:50:06.581Z,77.7
2017-08-30T03:51:08.197Z,77.4
2017-08-30T03:52:09.814Z,77.4
2017-08-30T03:53:11.422Z,77.4
2017-08-30T03:54:13.035Z,77.8
2017-08-30T03:55:14.652Z,77.5
2017-08-30T03:56:16.264Z,77.7
2017-08-30T03:57:17.878Z,77.7
2017-08-30T03:58:19.489Z,77.6
2017-08-30T03:59:21.115Z,77.5
2017-08-30T04:00:22.725Z,77.9
2017-08-30T04:01:24.332Z,77.6
2017-08-30T04:02:25.944Z,78.0
2017-08-30T04:03:27.562Z,77.9
2017-08-30T04:04:29.174Z,78.0
2017-08-30T04:05:30.784Z,77.9
2017-08-30T04:06:32.397Z,78.1
2017-08-30T04:07:34.016Z,78.1
2017-08-30T04:08:35.632Z,77.9
2017-08-30T04:09:37.243Z,78.2
2017-08-30T04:10:38.860Z,78.0
2017-08-30T04:11:40.477Z,78.1
2017-08-30T04:12:42.090Z,79.1
2017-08-30T04:13:43.700Z,78.8
2017-08-30T04:14:45.314Z,78.8
2017-08-30T04:15:46.932Z,78.1
2017-08-30T04:16:48.550Z,77.9
2017-08-30T04:17:50.167Z,78.4
2017-08-30T04:18:51.780Z,78.4
2017-08-30T04:19:53.396Z,78.6
2017-08-30T04:20:55.006Z,78.5
2017-08-30T04:21:56.618Z,78.4
2017-08-30T04:22:58.238Z,78.2
2017-08-30T04:23:59.856Z,78.5
2017-08-30T04:25:01.473Z,78.4
2017-08-30T04:26:03.084Z,78.5
2017-08-30T04:27:04.697Z,78.7
2017-08-30T04:28:06.311Z,78.7
2017-08-30T04:29:07.923Z,78.3
2017-08-30T04:30:09.541Z,78.5
2017-08-30T04:31:11.160Z,78.6
2017-08-30T04:32:12.772Z,78.9
2017-08-30T04:33:14.391Z,79.2
2017-08-30T04:34:16.011Z,79.0
2017-08-30T04:35:17.630Z,79.3
2017-08-30T04:36:19.242Z,78.8
2017-08-30T04:37:20.857Z,79.1
2017-08-30T04:38:22.479Z,78.8
2017-08-30T04:39:24.097Z,78.6
2017-08-30T04:40:25.714Z,78.6
2017-08-30T04:41:27.330Z,78.8
2017-08-30T04:42:28.947Z,78.6
2017-08-30T04:43:30.567Z,77.6
2017-08-30T04:44:32.179Z,77.3
2017-08-30T04:45:33.794Z,77.0
2017-08-30T04:46:35.415Z,77.1
2017-08-30T04:47:37.037Z,76.6
2017-08-30T04:48:38.651Z,76.7
2017-08-30T04:49:40.264Z,75.6
2017-08-30T04:50:41.887Z,75.5
2017-08-30T04:51:43.503Z,75.0
2017-08-30T04:52:45.117Z,73.9
2017-08-30T04:53:46.732Z,73.4
2017-08-30T04:54:48.354Z,73.5
2017-08-30T04:55:49.970Z,72.5
2017-08-30T04:56:51.584Z,72.8
2017-08-30T04:57:53.200Z,72.0
2017-08-30T04:58:54.820Z,71.1
2017-08-30T04:59:56.442Z,71.3
2017-08-30T05:00:58.053Z,70.4
2017-08-30T05:01:59.669Z,70.4
2017-08-30T05:03:01.281Z,70.2
2017-08-30T05:04:02.903Z,69.5
2017-08-30T05:05:04.519Z,69.7
2017-08-30T05:06:06.134Z,68.6
2017-08-30T05:07:07.751Z,68.2
2017-08-30T05:08:09.372Z,68.1
2017-08-30T05:09:10.996Z,68.0
2017-08-30T05:10:12.611Z,67.7
2017-08-30T05:11:14.228Z,67.2
2017-08-30T05:12:15.850Z,66.9
2017-08-30T05:13:17.468Z,66.2
2017-08-30T05:14:19.084Z,66.1
2017-08-30T05:15:20.701Z,66.1
2017-08-30T05:16:22.325Z,66.1
2017-08-30T05:17:23.949Z,66.0
2017-08-30T05:18:25.555Z,66.3
2017-08-30T05:19:27.174Z,66.1
2017-08-30T05:20:28.796Z,65.7
2017-08-30T05:21:30.420Z,65.5
2017-08-30T05:22:32.037Z,65.4
2017-08-30T05:23:33.654Z,65.8
2017-08-30T05:24:35.278Z,65.7
2017-08-30T05:25:36.897Z,65.1
2017-08-30T05:26:38.513Z,65.5
2017-08-30T05:27:40.134Z,65.3
2017-08-30T05:28:41.755Z,65.4
2017-08-30T05:29:43.376Z,64.3
2017-08-30T05:30:44.994Z,64.5
2017-08-30T05:31:46.610Z,64.7
2017-08-30T05:32:48.233Z,64.7
2017-08-30T05:33:49.852Z,64.2
2017-08-30T05:34:51.468Z,63.9
2017-08-30T05:35:53.092Z,63.7
2017-08-30T05:36:54.714Z,63.9
2017-08-30T05:37:56.336Z,63.2
2017-08-30T05:38:57.952Z,63.2
2017-08-30T05:39:59.575Z,63.5
2017-08-30T05:41:01.200Z,62.9
2017-08-30T05:42:02.814Z,62.9
2017-08-30T05:43:04.433Z,62.1
2017-08-30T05:44:06.058Z,62.0
2017-08-30T05:45:07.680Z,62.4
2017-08-30T05:46:09.296Z,62.1
2017-08-30T05:47:10.934Z,62.1
2017-08-30T05:48:12.561Z,62.1
2017-08-30T05:49:14.173Z,62.1
2017-08-30T05:50:15.794Z,61.5
2017-08-30T05:51:17.415Z,62.4
2017-08-30T05:52:19.045Z,61.6
2017-08-30T05:53:20.665Z,61.1
2017-08-30T05:54:22.277Z,60.8
2017-08-30T05:55:23.912Z,60.5
2017-08-30T05:56:25.533Z,60.7
2017-08-30T05:57:27.262Z,60.8
2017-08-30T05:58:28.952Z,60.3
2017-08-30T05:59:30.605Z,60.2
2017-08-30T06:00:32.400Z,60.0
2017-08-30T06:01:34.030Z,59.8
2017-08-30T06:02:35.648Z,59.3
2017-08-30T06:03:37.266Z,59.3
2017-08-30T06:04:38.890Z,59.2
2017-08-30T06:05:40.511Z,59.4
2017-08-30T06:06:42.127Z,59.3
2017-08-30T06:07:43.751Z,59.6
2017-08-30T06:08:45.372Z,59.5
2017-08-30T06:09:46.986Z,58.9
2017-08-30T06:10:48.630Z,59.5
2017-08-30T06:11:50.256Z,59.2
2017-08-30T06:12:51.877Z,58.9
2017-08-30T06:13:53.500Z,58.8
2017-08-30T06:14:55.115Z,58.6
2017-08-30T06:15:56.737Z,58.8
2017-08-30T06:16:58.447Z,58.9
2017-08-30T06:18:00.066Z,58.6
2017-08-30T06:19:01.685Z,58.2
2017-08-30T06:20:03.311Z,58.7
2017-08-30T06:21:04.939Z,58.1
2017-08-30T06:22:06.550Z,58.4
2017-08-30T06:23:08.170Z,58.5
2017-08-30T06:24:09.793Z,58.6
2017-08-30T06:25:11.415Z,57.5
2017-08-30T06:26:13.034Z,58.0
2017-08-30T06:27:14.656Z,57.5
2017-08-30T06:28:16.316Z,57.5
2017-08-30T06:29:17.905Z,57.3
2017-08-30T06:30:19.518Z,57.7
2017-08-30T06:31:21.139Z,58.2
2017-08-30T06:32:22.763Z,57.7
2017-08-30T06:33:24.386Z,57.2
2017-08-30T06:34:26.008Z,57.1
2017-08-30T06:35:27.631Z,56.1
2017-08-30T06:36:29.257Z,55.5
2017-08-30T06:37:30.882Z,54.1
2017-08-30T06:38:32.499Z,53.9
2017-08-30T06:39:34.124Z,52.0
2017-08-30T06:40:35.753Z,51.0
2017-08-30T06:41:37.374Z,49.8
2017-08-30T06:42:38.999Z,48.3
2017-08-30T06:43:40.625Z,48.1
2017-08-30T06:44:42.249Z,48.0
2017-08-30T06:45:43.870Z,46.7
2017-08-30T06:46:45.494Z,45.1
2017-08-30T06:47:47.123Z,44.9
2017-08-30T06:48:48.751Z,45.8
2017-08-30T06:49:50.374Z,44.8
2017-08-30T06:50:51.993Z,42.9
2017-08-30T06:51:53.623Z,41.5
2017-08-30T06:52:55.251Z,40.4
2017-08-30T06:53:56.872Z,40.0
2017-08-30T06:54:58.504Z,39.7
2017-08-30T06:56:00.133Z,38.9
2017-08-30T06:57:01.768Z,38.2
2017-08-30T06:58:03.389Z,38.8
2017-08-30T06:59:05.012Z,37.7
2017-08-30T07:00:06.646Z,37.8
2017-08-30T07:01:08.278Z,36.6
2017-08-30T07:02:09.897Z,36.9
2017-08-30T07:03:11.531Z,36.7
2017-08-30T07:04:13.163Z,35.7
2017-08-30T07:05:14.790Z,36.7
2017-08-30T07:06:16.414Z,35.3
2017-08-30T07:07:18.041Z,34.2
2017-08-30T07:08:19.699Z,34.0
2017-08-30T07:09:21.304Z,34.6
2017-08-30T07:10:22.931Z,34.3
2017-08-30T07:11:24.564Z,35.9
2017-08-30T07:12:26.195Z,37.4
2017-08-30T07:13:27.816Z,38.8
2017-08-30T07:14:29.446Z,39.5
2017-08-30T07:15:31.077Z,40.0
2017-08-30T07:16:32.703Z,40.9
2017-08-30T07:17:34.327Z,42.0
2017-08-30T07:18:35.962Z,42.0
2017-08-30T07:19:37.592Z,43.7
2017-08-30T07:20:39.209Z,43.8
2017-08-30T07:21:40.839Z,44.6
2017-08-30T07:22:42.464Z,44.5
2017-08-30T07:23:44.093Z,45.1
2017-08-30T07:24:45.714Z,44.7
2017-08-30T07:25:47.338Z,45.5
2017-08-30T07:26:48.967Z,45.6
2017-08-30T07:27:50.591Z,45.7
2017-08-30T07:28:52.216Z,45.9
2017-08-30T07:29:53.843Z,46.2
2017-08-30T07:30:55.472Z,46.4
2017-08-30T07:31:57.098Z,46.6
2017-08-30T07:32:58.719Z,46.7
2017-08-30T07:34:00.342Z,46.6
2017-08-30T07:35:01.972Z,46.6
2017-08-30T07:36:03.598Z,47.2
2017-08-30T07:37:05.219Z,47.7
2017-08-30T07:38:06.848Z,47.5
2017-08-30T07:39:08.473Z,48.0
2017-08-30T07:40:10.095Z,47.9
2017-08-30T07:41:11.719Z,48.4
2017-08-30T07:42:13.338Z,49.2
2017-08-30T07:43:14.966Z,48.4
2017-08-30T07:44:16.591Z,49.5
2017-08-30T07:45:18.213Z,48.9
2017-08-30T07:46:19.843Z,48.6
2017-08-30T07:47:21.463Z,49.5
2017-08-30T07:48:23.084Z,49.8
2017-08-30T07:49:24.710Z,48.9
2017-08-30T07:50:26.334Z,49.8
2017-08-30T07:51:28.446Z,49.1
2017-08-30T07:52:30.070Z,48.3
2017-08-30T07:53:31.703Z,48.7
2017-08-30T07:54:33.331Z,47.7
2017-08-30T07:55:34.952Z,48.1
2017-08-30T07:56:36.575Z,47.7
2017-08-30T07:57:38.203Z,46.3
2017-08-30T07:58:39.832Z,44.9
2017-08-30T07:59:41.453Z,45.1
2017-08-30T08:00:43.078Z,45.4
2017-08-30T08:01:44.707Z,43.6
2017-08-30T08:02:46.335Z,42.7
2017-08-30T08:03:47.954Z,40.2
2017-08-30T08:04:49.577Z,38.9
2017-08-30T08:05:51.211Z,38.0
2017-08-30T08:06:52.838Z,36.5
2017-08-30T08:07:54.462Z,35.3
2017-08-30T08:08:56.090Z,35.7
2017-08-30T08:09:57.720Z,34.0
2017-08-30T08:10:59.350Z,34.9
2017-08-30T08:12:00.975Z,35.3
2017-08-30T08:13:02.602Z,36.1
2017-08-30T08:14:04.231Z,36.7
2017-08-30T08:15:05.865Z,33.8
2017-08-30T08:16:07.491Z,34.0
2017-08-30T08:17:09.119Z,33.3
2017-08-30T08:18:10.751Z,31.8
2017-08-30T08:19:12.377Z,31.8
2017-08-30T08:20:14.005Z,31.6
2017-08-30T08:21:15.635Z,29.8
2017-08-30T08:22:17.270Z,30.6
2017-08-30T08:23:18.905Z,30.3
2017-08-30T08:24:20.533Z,30.6
2017-08-30T08:25:22.162Z,31.2
2017-08-30T08:26:23.800Z,30.4
2017-08-30T08:27:25.424Z,30.3
2017-08-30T08:28:27.055Z,31.3
2017-08-30T08:29:28.681Z,31.4
2017-08-30T08:30:30.317Z,32.7
2017-08-30T08:31:31.948Z,33.2
2017-08-30T08:32:33.571Z,34.2
2017-08-30T08:33:35.198Z,34.8
2017-08-30T08:34:36.831Z,35.2
2017-08-30T08:35:38.458Z,35.7
2017-08-30T08:36:40.086Z,36.7
2017-08-30T08:37:41.714Z,37.3
2017-08-30T08:38:43.345Z,37.5
2017-08-30T08:39:44.974Z,37.9
2017-08-30T08:40:46.609Z,39.1
2017-08-30T08:41:48.229Z,38.9
2017-08-30T08:42:49.863Z,39.3
2017-08-30T08:43:51.500Z,40.2
2017-08-30T08:44:53.122Z,40.2
2017-08-30T08:45:54.754Z,39.8
2017-08-30T08:46:56.387Z,40.2
2017-08-30T08:47:58.014Z,40.5
2017-08-30T08:48:59.638Z,40.1
2017-08-30T08:50:01.267Z,40.6
2017-08-30T08:51:02.898Z,40.7
2017-08-30T08:52:04.524Z,40.9
2017-08-30T08:53:06.157Z,40.9
2017-08-30T08:54:07.785Z,40.9
2017-08-30T08:55:09.410Z,41.8
2017-08-30T08:56:11.037Z,42.4
2017-08-30T08:57:12.668Z,42.1
2017-08-30T08:58:14.302Z,42.0
2017-08-30T08:59:15.926Z,40.8
2017-08-30T09:00:17.550Z,41.3
2017-08-30T09:01:19.177Z,42.2
2017-08-30T09:02:20.805Z,42.7
2017-08-30T09:03:22.431Z,43.0
2017-08-30T09:04:24.057Z,42.9
2017-08-30T09:05:25.688Z,43.2
2017-08-30T09:06:27.319Z,43.8
2017-08-30T09:07:28.939Z,43.5
2017-08-30T09:08:30.564Z,43.6
2017-08-30T09:09:32.193Z,43.7
2017-08-30T09:10:33.822Z,43.9
2017-08-30T09:11:35.445Z,43.6
2017-08-30T09:12:37.068Z,44.9
2017-08-30T09:13:38.699Z,44.6
2017-08-30T09:14:40.327Z,45.5
2017-08-30T09:15:41.948Z,45.5
2017-08-30T09:16:43.570Z,46.7
2017-08-30T09:17:45.200Z,47.2
2017-08-30T09:18:46.829Z,47.0
2017-08-30T09:19:48.449Z,47.8
2017-08-30T09:20:50.072Z,48.7
2017-08-30T09:21:51.699Z,50.0
2017-08-30T09:22:53.325Z,51.4
2017-08-30T09:23:54.947Z,52.5
2017-08-30T09:24:56.571Z,53.6
2017-08-30T09:25:58.194Z,54.0
2017-08-30T09:26:59.824Z,55.2
2017-08-30T09:28:01.451Z,56.3
2017-08-30T09:29:03.070Z,56.3
2017-08-30T09:30:04.691Z,56.5
2017-08-30T09:31:06.316Z,57.8
2017-08-30T09:32:07.945Z,58.1
2017-08-30T09:33:09.565Z,59.1
2017-08-30T09:34:11.189Z,59.1
2017-08-30T09:35:12.822Z,60.2
2017-08-30T09:36:14.446Z,61.2
2017-08-30T09:37:16.064Z,63.3
2017-08-30T09:38:17.685Z,64.9
2017-08-30T09:39:19.312Z,68.4
2017-08-30T09:40:20.941Z,68.3
2017-08-30T09:41:22.561Z,69.3
2017-08-30T09:42:24.184Z,69.2
2017-08-30T09:43:25.811Z,70.1
2017-08-30T09:44:27.432Z,70.0
2017-08-30T09:45:29.053Z,70.3
2017-08-30T09:46:30.672Z,70.8
2017-08-30T09:47:32.303Z,71.5
2017-08-30T09:48:33.926Z,71.4
2017-08-30T09:49:35.547Z,70.9
2017-08-30T09:50:37.168Z,73.2
2017-08-30T09:51:38.795Z,72.7
2017-08-30T09:52:40.417Z,72.2
2017-08-30T09:53:42.036Z,73.0
2017-08-30T09:54:43.659Z,73.9
2017-08-30T09:55:45.286Z,74.3
2017-08-30T09:56:46.912Z,73.4
2017-08-30T09:57:48.531Z,73.9
2017-08-30T09:58:50.154Z,72.4
2017-08-30T09:59:51.780Z,74.3
2017-08-30T10:00:53.398Z,74.4
2017-08-30T10:01:55.026Z,75.5
2017-08-30T10:02:56.655Z,73.9
2017-08-30T10:03:58.274Z,74.5
2017-08-30T10:04:59.901Z,73.7
2017-08-30T10:06:01.521Z,74.5
2017-08-30T10:07:03.148Z,75.1
2017-08-30T10:08:04.773Z,72.7
2017-08-30T10:09:06.397Z,72.6
2017-08-30T10:10:08.026Z,71.5
2017-08-30T10:11:09.653Z,71.6
2017-08-30T10:12:11.274Z,70.2
2017-08-30T10:13:12.894Z,68.9
2017-08-30T10:14:14.523Z,62.6
2017-08-30T10:15:16.150Z,64.7
2017-08-30T10:16:17.778Z,67.3
2017-08-30T10:17:19.400Z,63.7
2017-08-30T10:18:21.032Z,60.2
2017-08-30T10:19:22.662Z,61.5
2017-08-30T10:20:24.282Z,57.8
2017-08-30T10:21:25.906Z,59.0
2017-08-30T10:22:27.538Z,56.7
2017-08-30T10:23:29.167Z,57.4
2017-08-30T10:24:30.791Z,56.4
2017-08-30T10:25:32.417Z,55.4
2017-08-30T10:26:34.048Z,57.5
2017-08-30T10:27:35.674Z,58.3
2017-08-30T10:28:37.295Z,58.8
2017-08-30T10:29:38.917Z,57.3
2017-08-30T10:30:40.547Z,55.9
2017-08-30T10:31:42.175Z,57.7
2017-08-30T10:32:43.798Z,58.0
2017-08-30T10:33:45.423Z,57.2
2017-08-30T10:34:47.051Z,59.9
2017-08-30T10:35:48.677Z,61.1
2017-08-30T10:36:50.302Z,59.5
2017-08-30T10:37:51.924Z,59.7
2017-08-30T10:38:53.551Z,60.5
2017-08-30T10:39:55.181Z,59.7
2017-08-30T10:40:56.802Z,60.9
2017-08-30T10:41:58.424Z,59.4
2017-08-30T10:43:00.052Z,61.0
2017-08-30T10:44:01.676Z,61.2
2017-08-30T10:45:03.299Z,61.0
2017-08-30T10:46:04.921Z,59.6
2017-08-30T10:47:06.551Z,61.2
2017-08-30T10:48:08.176Z,61.9
2017-08-30T10:49:09.796Z,62.4
2017-08-30T10:50:11.417Z,59.8
2017-08-30T10:51:13.044Z,62.0
2017-08-30T10:52:14.678Z,61.8
2017-08-30T10:53:16.297Z,62.5
2017-08-30T10:54:17.922Z,62.5
2017-08-30T10:55:19.549Z,61.9
2017-08-30T10:56:21.171Z,62.5
2017-08-30T10:57:22.789Z,62.4
2017-08-30T10:58:24.412Z,62.1
2017-08-30T10:59:26.040Z,60.8
2017-08-30T11:00:27.665Z,61.8
2017-08-30T11:01:29.285Z,60.4
2017-08-30T11:02:30.908Z,59.3
2017-08-30T11:03:32.540Z,60.2
2017-08-30T11:04:34.156Z,59.5
2017-08-30T11:05:35.787Z,59.7
2017-08-30T11:06:37.413Z,58.5
2017-08-30T11:07:39.036Z,56.7
2017-08-30T11:08:40.663Z,56.9
2017-08-30T11:09:42.291Z,55.9
2017-08-30T11:10:43.918Z,56.4
2017-08-30T11:11:45.546Z,56.5
2017-08-30T11:12:47.166Z,54.1
2017-08-30T11:13:48.793Z,52.0
2017-08-30T11:14:50.428Z,53.0
2017-08-30T11:15:52.047Z,54.2
2017-08-30T11:16:53.674Z,53.9
2017-08-30T11:17:55.301Z,51.1
2017-08-30T11:18:56.930Z,50.8
2017-08-30T11:19:58.554Z,53.0
2017-08-30T11:21:00.180Z,50.8
2017-08-30T11:22:01.806Z,51.5
2017-08-30T11:23:03.444Z,48.9
2017-08-30T11:24:05.064Z,48.5
2017-08-30T11:25:06.688Z,48.7
2017-08-30T11:26:08.323Z,46.9
2017-08-30T11:27:09.950Z,48.7
2017-08-30T11:28:11.573Z,48.9
2017-08-30T11:29:13.204Z,46.8
2017-08-30T11:30:14.846Z,46.6
2017-08-30T11:31:16.465Z,46.4
2017-08-30T11:32:18.091Z,48.0
2017-08-30T11:33:19.718Z,46.3
2017-08-30T11:34:21.355Z,45.8
2017-08-30T11:35:22.984Z,42.7
2017-08-30T11:36:24.618Z,40.9
2017-08-30T11:37:26.266Z,41.4
2017-08-30T11:38:27.880Z,42.8
2017-08-30T11:39:29.506Z,42.4
2017-08-30T11:40:31.135Z,40.4
2017-08-30T11:41:32.773Z,41.7
2017-08-30T11:42:34.406Z,36.9
2017-08-30T11:43:36.037Z,38.0
2017-08-30T11:44:37.675Z,39.1
2017-08-30T11:45:39.306Z,39.0
2017-08-30T11:46:40.934Z,40.2
2017-08-30T11:47:42.563Z,38.5
2017-08-30T11:48:44.193Z,38.2
2017-08-30T11:49:45.831Z,38.7
2017-08-30T11:50:47.459Z,37.6
2017-08-30T11:51:49.095Z,39.1
2017-08-30T11:52:50.730Z,38.1
2017-08-30T11:53:52.362Z,39.2
2017-08-30T11:54:53.992Z,37.8
2017-08-30T11:55:55.627Z,36.5
2017-08-30T11:56:57.259Z,37.2
2017-08-30T11:57:58.894Z,35.8
2017-08-30T11:59:00.525Z,36.1
2017-08-30T12:00:02.156Z,36.6
2017-08-30T12:01:03.788Z,38.0
2017-08-30T12:02:05.423Z,38.0
2017-08-30T12:03:07.051Z,37.6
2017-08-30T12:04:08.685Z,38.6
2017-08-30T12:05:10.315Z,39.1
2017-08-30T12:06:11.952Z,39.0
2017-08-30T12:07:13.578Z,38.5
2017-08-30T12:08:15.208Z,39.7
2017-08-30T12:09:16.845Z,40.9
2017-08-30T12:10:18.474Z,40.0
2017-08-30T12:11:20.103Z,40.7
2017-08-30T12:12:21.739Z,41.2
2017-08-30T12:13:23.374Z,41.0
2017-08-30T12:14:25.000Z,41.3
2017-08-30T12:15:26.628Z,41.3
2017-08-30T12:16:28.264Z,41.0
2017-08-30T12:17:29.894Z,40.9
2017-08-30T12:18:31.524Z,39.2
2017-08-30T12:19:33.152Z,40.0
2017-08-30T12:20:34.789Z,39.8
2017-08-30T12:21:36.419Z,39.4
2017-08-30T12:22:38.044Z,39.6
2017-08-30T12:23:39.673Z,41.0
2017-08-30T12:24:41.309Z,40.8
2017-08-30T12:25:42.944Z,40.7
2017-08-30T12:26:44.573Z,40.0
2017-08-30T12:27:46.203Z,40.9
2017-08-30T12:28:47.837Z,41.2
2017-08-30T12:29:49.469Z,41.0
2017-08-30T12:30:51.096Z,41.9
2017-08-30T12:31:52.725Z,41.5
2017-08-30T12:32:54.358Z,42.0
2017-08-30T12:33:55.993Z,41.7
2017-08-30T12:34:57.624Z,42.3
2017-08-30T12:35:59.248Z,42.0
2017-08-30T12:37:00.881Z,41.8
2017-08-30T12:38:02.513Z,42.4
2017-08-30T12:39:04.140Z,42.4
2017-08-30T12:40:05.767Z,43.1
2017-08-30T12:41:07.401Z,43.3
2017-08-30T12:42:09.029Z,43.7
2017-08-30T12:43:10.655Z,43.1
2017-08-30T12:44:12.288Z,42.9
2017-08-30T12:45:13.921Z,44.8
2017-08-30T12:46:15.552Z,44.0
2017-08-30T12:47:17.177Z,43.2
2017-08-30T12:48:18.804Z,44.3
2017-08-30T12:49:20.439Z,45.0
2017-08-30T12:50:22.062Z,44.9
2017-08-30T12:51:23.687Z,45.7
2017-08-30T12:52:25.320Z,45.7
2017-08-30T12:53:26.947Z,47.2
2017-08-30T12:54:28.573Z,46.4
2017-08-30T12:55:30.197Z,47.1
2017-08-30T12:56:31.831Z,48.2
2017-08-30T12:57:33.458Z,47.8
2017-08-30T12:58:35.083Z,48.0
2017-08-30T12:59:36.705Z,48.3
2017-08-30T13:00:38.336Z,48.8
2017-08-30T13:01:39.964Z,49.0
2017-08-30T13:02:41.586Z,48.7
2017-08-30T13:03:43.212Z,49.6
2017-08-30T13:04:44.872Z,48.8
2017-08-30T13:05:46.471Z,49.1
2017-08-30T13:06:48.095Z,49.6
2017-08-30T13:07:49.717Z,50.5
2017-08-30T13:08:51.351Z,50.6
2017-08-30T13:09:52.977Z,50.8
2017-08-30T13:10:54.601Z,51.3
2017-08-30T13:11:56.222Z,51.5
2017-08-30T13:12:57.851Z,51.0
2017-08-30T13:13:59.480Z,51.3
2017-08-30T13:15:01.101Z,52.2
2017-08-30T13:16:02.732Z,52.6
2017-08-30T13:17:04.359Z,51.8
2017-08-30T13:18:05.981Z,51.7
2017-08-30T13:19:07.603Z,51.9
2017-08-30T13:20:09.231Z,52.4
2017-08-30T13:21:10.860Z,52.2
2017-08-30T13:22:12.479Z,52.1
2017-08-30T13:23:14.103Z,52.6
2017-08-30T13:24:15.736Z,52.7
2017-08-30T13:25:17.372Z,52.8
2017-08-30T13:26:18.990Z,52.3
2017-08-30T13:27:20.606Z,53.2
2017-08-30T13:28:22.235Z,52.8
2017-08-30T13:29:23.862Z,53.0
2017-08-30T13:30:25.482Z,53.9
2017-08-30T13:31:27.108Z,54.0
2017-08-30T13:32:28.737Z,53.6
2017-08-30T13:33:30.361Z,53.9
2017-08-30T13:34:31.981Z,54.7
2017-08-30T13:35:33.604Z,53.5
2017-08-30T13:36:35.232Z,54.1
2017-08-30T13:37:36.859Z,53.9
2017-08-30T13:38:38.482Z,54.6
2017-08-30T13:39:40.111Z,54.7